createdAt,value
2023-02-15T00:00:07.716Z,99578.19
2023-02-15T00:03:31.966Z,99569.03
2023-02-15T00:06:37.515Z,99572.19
2023-02-15T00:09:41.261Z,99576.19
2023-02-15T00:12:45.632Z,99574.66
2023-02-15T00:15:49.035Z,99569.97
2023-02-15T00:18:54.385Z,99570.38
2023-02-15T00:21:59.481Z,99572.38
2023-02-15T00:25:03.487Z,99569.97
2023-02-15T00:28:06.967Z,99573.50
2023-02-15T00:31:14.543Z,99580.56
2023-02-15T00:34:20.068Z,99571.91
2023-02-15T00:37:25.492Z,99578.63
2023-02-15T00:40:29.074Z,99584.16
2023-02-15T00:43:34.428Z,99572.63
2023-02-15T00:46:38.661Z,99580.94
2023-02-15T00:49:42.597Z,99583.75
2023-02-15T00:52:47.750Z,99576.22
2023-02-15T00:55:51.824Z,99568.25
2023-02-15T00:58:55.321Z,99555.97
2023-02-15T01:01:59.048Z,99568.31
2023-02-15T01:05:02.670Z,99557.97
2023-02-15T01:08:08.701Z,99564.34
2023-02-15T01:11:15.152Z,99552.84
2023-02-15T01:14:19.054Z,99561.59
2023-02-15T01:17:22.469Z,99560.84
2023-02-15T01:20:29.355Z,99558.88
2023-02-15T01:23:35.847Z,99551.72
2023-02-15T01:26:39.775Z,99545.06
2023-02-15T01:29:43.510Z,99549.34
2023-02-15T01:32:47.308Z,99545.00
2023-02-15T01:35:50.836Z,99539.16
2023-02-15T01:38:56.014Z,99542.66
2023-02-15T01:41:59.656Z,99541.84
2023-02-15T01:45:08.624Z,99543.44
2023-02-15T01:48:22.401Z,99542.31
2023-02-15T01:51:31.422Z,99542.69
2023-02-15T01:54:39.217Z,99536.38
2023-02-15T01:57:45.985Z,99536.72
2023-02-15T02:00:50.559Z,99536.41
2023-02-15T02:04:02.724Z,99529.34
2023-02-15T02:07:09.050Z,99534.78
2023-02-15T02:10:18.066Z,99542.34
2023-02-15T02:13:22.133Z,99533.69
2023-02-15T02:16:35.097Z,99535.97
2023-02-15T02:20:13.280Z,99531.66
2023-02-15T02:23:47.288Z,99537.59
2023-02-15T02:27:18.707Z,99534.88
2023-02-15T02:30:45.526Z,99537.22
2023-02-15T02:34:00.583Z,99536.50
2023-02-15T02:37:17.524Z,99534.06
2023-02-15T02:40:28.313Z,99534.47
2023-02-15T02:43:37.694Z,99536.44
2023-02-15T02:46:51.257Z,99530.56
2023-02-15T02:50:02.306Z,99534.13
2023-02-15T02:53:05.973Z,99532.53
2023-02-15T02:56:25.304Z,99530.13
2023-02-15T02:59:35.859Z,99530.91
2023-02-15T03:02:47.164Z,99531.66
2023-02-15T03:05:57.560Z,99538.31
2023-02-15T03:09:15.543Z,99534.84
2023-02-15T03:12:22.655Z,99533.19
2023-02-15T03:15:51.804Z,99539.53
2023-02-15T03:18:59.312Z,99539.91
2023-02-15T03:22:10.493Z,99542.28
2023-02-15T03:25:20.127Z,99539.53
2023-02-15T03:28:33.597Z,99532.44
2023-02-15T03:31:44.132Z,99530.13
2023-02-15T03:34:48.594Z,99531.66
2023-02-15T03:37:59.800Z,99534.03
2023-02-15T03:41:14.137Z,99529.66
2023-02-15T03:44:26.178Z,99531.63
2023-02-15T03:47:34.937Z,99533.28
2023-02-15T03:50:57.833Z,99532.44
2023-02-15T03:54:05.044Z,99534.50
2023-02-15T03:57:29.419Z,99529.34
2023-02-15T04:00:55.589Z,99536.81
2023-02-15T04:04:05.554Z,99535.25
2023-02-15T04:07:11.026Z,99528.59
2023-02-15T04:10:33.466Z,99523.50
2023-02-15T04:13:38.701Z,99515.94
2023-02-15T04:16:41.127Z,99535.69
2023-02-15T04:20:02.447Z,99526.97
2023-02-15T04:23:25.640Z,99534.16
2023-02-15T04:26:30.755Z,99532.50
2023-02-15T04:29:34.397Z,99539.19
2023-02-15T04:32:39.527Z,99539.59
2023-02-15T04:35:44.156Z,99549.09
2023-02-15T04:38:47.945Z,99543.59
2023-02-15T04:41:52.900Z,99541.94
2023-02-15T04:44:56.750Z,99538.34
2023-02-15T04:48:00.545Z,99545.91
2023-02-15T04:51:07.671Z,99552.19
2023-02-15T04:54:11.208Z,99551.03
2023-02-15T04:57:16.635Z,99539.56
2023-02-15T05:00:21.870Z,99551.41
2023-02-15T05:03:25.789Z,99551.44
2023-02-15T05:06:29.422Z,99553.00
2023-02-15T05:09:33.764Z,99552.59
2023-02-15T05:12:41.062Z,99554.56
2023-02-15T05:15:49.635Z,99554.97
2023-02-15T05:18:53.218Z,99562.50
2023-02-15T05:21:57.401Z,99569.22
2023-02-15T05:25:18.451Z,99557.69
2023-02-15T05:28:24.561Z,99568.06
2023-02-15T05:31:28.373Z,99571.19
2023-02-15T05:34:32.556Z,99570.50
2023-02-15T05:37:36.087Z,99571.66
2023-02-15T05:40:39.905Z,99577.59
2023-02-15T05:43:44.908Z,99576.78
2023-02-15T05:46:48.924Z,99581.13
2023-02-15T05:49:52.589Z,99584.72
2023-02-15T05:52:56.622Z,99575.63
2023-02-15T05:56:04.062Z,99578.81
2023-02-15T05:59:11.031Z,99579.97
2023-02-15T06:02:15.242Z,99583.16
2023-02-15T06:05:19.780Z,99581.97
2023-02-15T06:08:23.759Z,99582.34
2023-02-15T06:11:27.657Z,99577.59
2023-02-15T06:14:32.783Z,99572.06
2023-02-15T06:17:36.620Z,99590.22
2023-02-15T06:20:42.155Z,99581.53
2023-02-15T06:23:45.993Z,99574.75
2023-02-15T06:26:50.706Z,99581.13
2023-02-15T06:29:56.557Z,99590.19
2023-02-15T06:33:04.330Z,99581.44
2023-02-15T06:36:08.384Z,99587.41
2023-02-15T06:39:11.791Z,99578.78
2023-02-15T06:42:15.683Z,99587.88
2023-02-15T06:45:21.079Z,99586.25
2023-02-15T06:48:25.124Z,99592.97
2023-02-15T06:51:28.675Z,99585.78
2023-02-15T06:54:32.498Z,99584.16
2023-02-15T06:57:36.280Z,99579.81
2023-02-15T07:00:42.093Z,99582.59
2023-02-15T07:03:46.903Z,99585.00
2023-02-15T07:06:53.791Z,99582.25
2023-02-15T07:09:57.477Z,99591.66
2023-02-15T07:13:04.455Z,99582.97
2023-02-15T07:16:12.746Z,99593.25
2023-02-15T07:19:18.970Z,99592.44
2023-02-15T07:22:25.225Z,99597.09
2023-02-15T07:25:29.423Z,99602.69
2023-02-15T07:28:34.681Z,99598.34
2023-02-15T07:31:44.497Z,99604.16
2023-02-15T07:34:48.176Z,99602.03
2023-02-15T07:37:54.681Z,99609.22
2023-02-15T07:41:04.891Z,99605.28
2023-02-15T07:44:14.560Z,99599.94
2023-02-15T07:47:19.594Z,99602.22
2023-02-15T07:50:26.070Z,99597.50
2023-02-15T07:53:31.766Z,99596.53
2023-02-15T07:56:37.124Z,99599.25
2023-02-15T07:59:40.691Z,99587.69
2023-02-15T08:03:14.179Z,99584.38
2023-02-15T08:06:23.260Z,99581.94
2023-02-15T08:09:27.801Z,99589.38
2023-02-15T08:12:31.280Z,99587.59
2023-02-15T08:15:35.669Z,99578.09
2023-02-15T08:18:41.705Z,99582.28
2023-02-15T08:21:47.920Z,99582.28
2023-02-15T08:24:52.426Z,99588.88
2023-02-15T08:27:56.256Z,99587.25
2023-02-15T08:31:07.046Z,99583.84
2023-02-15T08:34:17.424Z,99574.69
2023-02-15T08:37:22.043Z,99579.00
2023-02-15T08:40:26.685Z,99577.44
2023-02-15T08:43:30.971Z,99570.06
2023-02-15T08:46:37.365Z,99577.38
2023-02-15T08:49:45.451Z,99572.53
2023-02-15T08:52:50.078Z,99581.31
2023-02-15T08:55:58.339Z,99576.63
2023-02-15T08:59:02.466Z,99587.47
2023-02-15T09:02:07.425Z,99574.31
2023-02-15T09:05:13.441Z,99574.47
2023-02-15T09:08:17.312Z,99570.75
2023-02-15T09:11:25.334Z,99568.47
2023-02-15T09:14:29.427Z,99576.13
2023-02-15T09:17:33.805Z,99570.66
2023-02-15T09:20:40.717Z,99572.28
2023-02-15T09:23:45.838Z,99569.75
2023-02-15T09:26:50.667Z,99576.31
2023-02-15T09:29:54.726Z,99578.81
2023-02-15T09:32:58.463Z,99576.09
2023-02-15T09:36:03.784Z,99570.16
2023-02-15T09:39:11.166Z,99563.41
2023-02-15T09:42:51.326Z,99564.00
2023-02-15T09:46:14.186Z,99567.28
2023-02-15T09:49:27.283Z,99556.22
2023-02-15T09:52:55.940Z,99553.19
2023-02-15T09:56:09.780Z,99562.38
2023-02-15T09:59:26.666Z,99554.31
2023-02-15T10:02:44.805Z,99551.50
2023-02-15T10:06:02.491Z,99540.50
2023-02-15T10:09:29.936Z,99549.31
2023-02-15T10:12:59.707Z,99546.81
2023-02-15T10:16:21.768Z,99551.72
2023-02-15T10:19:43.009Z,99550.41
2023-02-15T10:23:04.351Z,99543.94
2023-02-15T10:26:21.004Z,99549.88
2023-02-15T10:29:36.607Z,99536.06
2023-02-15T10:32:58.431Z,99527.31
2023-02-15T10:36:14.653Z,99522.50
2023-02-15T10:39:28.061Z,99527.59
2023-02-15T10:42:43.891Z,99520.41
2023-02-15T10:46:03.110Z,99517.19
2023-02-15T10:49:26.297Z,99519.63
2023-02-15T10:52:43.645Z,99511.63
2023-02-15T10:55:59.224Z,99499.94
2023-02-15T10:59:25.254Z,99497.34
2023-02-15T11:02:44.778Z,99488.56
2023-02-15T11:06:06.656Z,99498.09
2023-02-15T11:09:16.733Z,99482.19
2023-02-15T11:12:26.260Z,99482.56
2023-02-15T11:15:37.486Z,99474.09
2023-02-15T11:18:46.327Z,99472.75
2023-02-15T11:21:55.231Z,99466.38
2023-02-15T11:25:02.845Z,99465.00
2023-02-15T11:28:15.588Z,99466.69
2023-02-15T11:31:24.416Z,99462.78
2023-02-15T11:34:36.780Z,99458.53
2023-02-15T11:37:50.864Z,99458.53
2023-02-15T11:40:59.171Z,99451.53
2023-02-15T11:44:10.803Z,99450.31
2023-02-15T11:47:16.608Z,99442.06
2023-02-15T11:50:25.617Z,99432.75
2023-02-15T11:53:34.160Z,99431.88
2023-02-15T11:56:38.733Z,99424.53
2023-02-15T11:59:48.155Z,99428.34
2023-02-15T12:02:57.328Z,99418.16
2023-02-15T12:06:06.102Z,99417.59
2023-02-15T12:09:23.749Z,99421.53
2023-02-15T12:12:32.560Z,99420.66
2023-02-15T12:15:37.909Z,99411.63
2023-02-15T12:18:46.693Z,99409.31
2023-02-15T12:21:55.016Z,99410.44
2023-02-15T12:25:02.727Z,99404.31
2023-02-15T12:28:26.625Z,99406.28
2023-02-15T12:31:39.408Z,99397.47
2023-02-15T12:34:47.585Z,99393.31
2023-02-15T12:37:57.836Z,99380.84
2023-02-15T12:41:04.072Z,99383.88
2023-02-15T12:44:17.672Z,99385.81
2023-02-15T12:47:29.046Z,99377.66
2023-02-15T12:50:34.845Z,99371.97
2023-02-15T12:53:40.276Z,99362.78
2023-02-15T12:56:43.816Z,99366.09
2023-02-15T12:59:52.577Z,99353.94
2023-02-15T13:02:58.326Z,99356.03
2023-02-15T13:06:08.580Z,99350.75
2023-02-15T13:09:19.996Z,99342.63
2023-02-15T13:12:27.597Z,99336.25
2023-02-15T13:15:38.060Z,99333.63
2023-02-15T13:18:46.412Z,99329.91
2023-02-15T13:25:18.335Z,99327.72
2023-02-15T13:28:26.515Z,99329.03
2023-02-15T13:31:33.750Z,99327.28
2023-02-15T13:34:40.492Z,99319.88
2023-02-15T13:38:13.033Z,99315.69
2023-02-15T13:41:22.587Z,99310.41
2023-02-15T13:45:04.735Z,99304.66
2023-02-15T13:48:20.228Z,99311.13
2023-02-15T13:51:53.317Z,99302.22
2023-02-15T13:55:23.176Z,99314.91
2023-02-15T13:58:57.055Z,99309.28
2023-02-15T14:02:14.123Z,99308.78
2023-02-15T14:05:33.763Z,99315.97
2023-02-15T14:08:51.225Z,99313.06
2023-02-15T14:12:11.114Z,99304.22
2023-02-15T14:15:28.073Z,99307.63
2023-02-15T14:18:42.419Z,99302.84
2023-02-15T14:21:56.742Z,99294.94
2023-02-15T14:25:23.960Z,99288.78
2023-02-15T14:28:45.451Z,99278.72
2023-02-15T14:31:54.669Z,99282.63
2023-02-15T14:35:01.888Z,99279.75
2023-02-15T14:38:16.587Z,99292.13
2023-02-15T14:41:27.960Z,99281.97
2023-02-15T14:44:41.242Z,99285.91
2023-02-15T14:47:47.455Z,99287.13
2023-02-15T14:50:51.641Z,99281.56
2023-02-15T14:53:56.578Z,99294.91
2023-02-15T14:57:34.078Z,99270.59
2023-02-15T15:00:43.004Z,99271.84
2023-02-15T15:03:57.390Z,99274.25
2023-02-15T15:07:06.704Z,99274.63
2023-02-15T15:10:37.484Z,99271.13
2023-02-15T15:13:56.601Z,99272.34
2023-02-15T15:17:04.305Z,99279.56
2023-02-15T15:20:17.615Z,99283.13
2023-02-15T15:23:45.349Z,99287.91
2023-02-15T15:26:51.821Z,99288.41
2023-02-15T15:29:56.452Z,99290.91
2023-02-15T15:33:15.065Z,99289.81
2023-02-15T15:36:57.073Z,99286.66
2023-02-15T15:40:52.250Z,99285.56
2023-02-15T15:44:25.128Z,99294.16
2023-02-15T15:48:06.617Z,99283.75
2023-02-15T15:51:22.330Z,99283.53
2023-02-15T15:54:28.803Z,99285.38
2023-02-15T15:57:37.452Z,99283.75
2023-02-15T16:00:48.763Z,99287.41
2023-02-15T16:03:57.662Z,99287.75
2023-02-15T16:07:22.928Z,99286.31
2023-02-15T16:10:29.611Z,99296.84
2023-02-15T16:13:33.362Z,99284.47
2023-02-15T16:16:37.517Z,99293.19
2023-02-15T16:19:44.053Z,99298.97
2023-02-15T16:22:55.027Z,99301.16
2023-02-15T16:26:11.365Z,99306.56
2023-02-15T16:29:17.466Z,99320.16
2023-02-15T16:32:25.864Z,99311.59
2023-02-15T16:35:31.003Z,99310.97
2023-02-15T16:39:11.994Z,99318.88
2023-02-15T16:42:19.024Z,99312.69
2023-02-15T16:45:27.912Z,99314.09
2023-02-15T16:48:35.895Z,99323.22
2023-02-15T16:51:45.463Z,99329.84
2023-02-15T16:54:55.610Z,99334.59
2023-02-15T16:58:05.232Z,99332.53
2023-02-15T17:01:12.193Z,99322.94
2023-02-15T17:04:30.225Z,99326.88
2023-02-15T17:07:34.602Z,99318.03
2023-02-15T17:10:43.662Z,99316.91
2023-02-15T17:14:15.485Z,99310.59
2023-02-15T17:17:24.230Z,99316.22
2023-02-15T17:20:35.009Z,99322.38
2023-02-15T17:23:55.628Z,99318.75
2023-02-15T17:27:05.639Z,99329.63
2023-02-15T17:30:18.767Z,99326.81
2023-02-15T17:33:30.247Z,99327.34
2023-02-15T17:36:34.552Z,99333.50
2023-02-15T17:39:38.568Z,99321.41
2023-02-15T17:42:46.044Z,99345.25
2023-02-15T17:45:52.506Z,99335.00
2023-02-15T17:48:57.632Z,99337.66
2023-02-15T17:52:03.227Z,99337.38
2023-02-15T17:55:33.017Z,99334.97
2023-02-15T17:58:40.558Z,99336.00
2023-02-15T18:02:06.218Z,99337.50
2023-02-15T18:05:32.447Z,99335.88
2023-02-15T18:08:54.844Z,99331.88
2023-02-15T18:11:59.569Z,99327.66
2023-02-15T18:15:05.842Z,99334.38
2023-02-15T18:18:13.967Z,99334.72
2023-02-15T18:21:19.145Z,99330.81
2023-02-15T18:24:27.546Z,99322.63
2023-02-15T18:27:33.333Z,99327.38
2023-02-15T18:30:43.924Z,99326.56
2023-02-15T18:33:50.767Z,99328.94
2023-02-15T18:37:00.204Z,99334.81
2023-02-15T18:40:05.062Z,99332.09
2023-02-15T18:43:12.747Z,99326.56
2023-02-15T18:46:18.979Z,99330.47
2023-02-15T18:49:23.810Z,99338.00
2023-02-15T18:52:36.116Z,99326.53
2023-02-15T18:55:40.679Z,99331.22
2023-02-15T18:58:46.218Z,99328.91
2023-02-15T19:01:52.344Z,99325.34
2023-02-15T19:04:55.812Z,99335.63
2023-02-15T19:08:03.063Z,99338.38
2023-02-15T19:11:07.000Z,99347.81
2023-02-15T19:14:25.091Z,99343.50
2023-02-15T19:17:31.177Z,99343.09
2023-02-15T19:20:39.475Z,99340.75
2023-02-15T19:23:43.038Z,99341.97
2023-02-15T19:26:47.738Z,99349.44
2023-02-15T19:29:51.677Z,99350.19
2023-02-15T19:32:57.810Z,99348.63
2023-02-15T19:36:03.025Z,99350.59
2023-02-15T19:39:38.639Z,99349.38
2023-02-15T19:42:43.945Z,99346.63
2023-02-15T19:45:52.329Z,99343.09
2023-02-15T19:48:57.587Z,99345.44
2023-02-15T19:52:01.902Z,99334.72
2023-02-15T19:55:07.151Z,99343.81
2023-02-15T19:58:13.940Z,99346.94
2023-02-15T20:01:18.310Z,99346.13
2023-02-15T20:04:24.288Z,99344.47
2023-02-15T20:07:29.425Z,99344.44
2023-02-15T20:10:33.792Z,99343.13
2023-02-15T20:13:37.367Z,99342.06
2023-02-15T20:16:42.412Z,99335.34
2023-02-15T20:19:47.877Z,99340.53
2023-02-15T20:22:53.215Z,99338.56
2023-02-15T20:25:59.406Z,99331.38
2023-02-15T20:29:03.672Z,99326.28
2023-02-15T20:32:07.235Z,99324.75
2023-02-15T20:35:16.680Z,99328.56
2023-02-15T20:38:23.084Z,99326.66
2023-02-15T20:41:44.118Z,99322.84
2023-02-15T20:44:48.187Z,99324.81
2023-02-15T20:47:53.727Z,99320.47
2023-02-15T20:50:59.972Z,99317.25
2023-02-15T20:54:09.864Z,99317.59
2023-02-15T20:57:14.115Z,99308.84
2023-02-15T21:00:21.109Z,99314.03
2023-02-15T21:03:30.864Z,99311.44
2023-02-15T21:06:36.939Z,99304.19
2023-02-15T21:14:27.221Z,99301.78
2023-02-15T21:17:30.637Z,99294.75
2023-02-15T21:20:51.196Z,99299.47
2023-02-15T21:23:56.521Z,99288.47
2023-02-15T21:27:04.412Z,99293.63
2023-02-15T21:30:16.558Z,99295.44
2023-02-15T21:33:23.927Z,99296.63
2023-02-15T21:36:29.109Z,99288.41
2023-02-15T21:39:37.642Z,99290.72
2023-02-15T21:42:59.257Z,99287.66
2023-02-15T21:46:30.915Z,99287.16
2023-02-15T21:49:34.979Z,99289.91
2023-02-15T21:52:38.551Z,99289.88
2023-02-15T21:55:44.260Z,99287.09
2023-02-15T21:58:49.299Z,99288.22
2023-02-15T22:01:53.056Z,99291.44
2023-02-15T22:04:57.227Z,99292.88
2023-02-15T22:08:01.721Z,99292.16
2023-02-15T22:11:12.818Z,99277.25
2023-02-15T22:14:36.766Z,99281.91
2023-02-15T22:17:40.550Z,99280.09
2023-02-15T22:20:44.664Z,99290.19
2023-02-15T22:23:48.663Z,99286.63
2023-02-15T22:26:54.509Z,99287.63
2023-02-15T22:29:58.955Z,99290.34
2023-02-15T22:33:04.195Z,99290.06
2023-02-15T22:36:22.810Z,99293.19
2023-02-15T22:39:27.002Z,99288.31
2023-02-15T22:42:32.191Z,99277.66
2023-02-15T22:45:36.425Z,99282.50
2023-02-15T22:48:40.445Z,99282.44
2023-02-15T22:51:44.060Z,99271.03
2023-02-15T22:54:48.139Z,99268.88
2023-02-15T22:57:56.147Z,99273.69
2023-02-15T23:01:00.905Z,99270.56
2023-02-15T23:04:05.902Z,99272.59
2023-02-15T23:07:16.150Z,99272.31
2023-02-15T23:10:22.501Z,99265.78
2023-02-15T23:13:33.104Z,99267.53
2023-02-15T23:16:37.419Z,99265.25
2023-02-15T23:19:41.850Z,99264.34
2023-02-15T23:22:46.116Z,99264.16
2023-02-15T23:25:50.328Z,99260.19
2023-02-15T23:28:57.162Z,99259.75
2023-02-15T23:32:01.604Z,99257.72
2023-02-15T23:35:15.432Z,99260.44
2023-02-15T23:38:21.902Z,99255.47
2023-02-15T23:41:27.648Z,99256.28
2023-02-15T23:44:34.188Z,99261.00
2023-02-15T23:47:55.203Z,99262.63
2023-02-15T23:50:59.676Z,99256.28
2023-02-15T23:54:03.242Z,99262.03
2023-02-15T23:57:07.093Z,99267.34
